sensor_id;sensor_type;location;lat;lon;timestamp;pressure;altitude;pressure_sealevel;temperature;humidity
65800;BME280;52544;48.116;11.660;2024-03-08T00:01:39;95514.63;;;0.37;100.00
65800;BME280;52544;48.116;11.660;2024-03-08T00:04:05;95515.63;;;0.35;100.00
65800;BME280;52544;48.116;11.660;2024-03-08T00:06:32;95509.50;;;0.36;100.00
65800;BME280;52544;48.116;11.660;2024-03-08T00:08:57;95509.63;;;0.33;100.00
65800;BME280;52544;48.116;11.660;2024-03-08T00:11:23;95512.94;;;0.36;100.00
65800;BME280;52544;48.116;11.660;2024-03-08T00:13:52;95507.81;;;0.35;100.00
65800;BME280;52544;48.116;11.660;2024-03-08T00:16:17;95507.34;;;0.27;100.00
65800;BME280;52544;48.116;11.660;2024-03-08T00:18:45;95509.94;;;0.27;100.00
65800;BME280;52544;48.116;11.660;2024-03-08T00:21:10;95509.16;;;0.24;100.00
65800;BME280;52544;48.116;11.660;2024-03-08T00:23:37;95503.31;;;0.19;100.00
65800;BME280;52544;48.116;11.660;2024-03-08T00:26:03;95501.50;;;0.21;100.00
65800;BME280;52544;48.116;11.660;2024-03-08T00:28:29;95506.63;;;0.23;100.00
65800;BME280;52544;48.116;11.660;2024-03-08T00:30:56;95504.78;;;0.25;100.00
65800;BME280;52544;48.116;11.660;2024-03-08T00:33:21;95494.38;;;0.25;100.00
65800;BME280;52544;48.116;11.660;2024-03-08T00:35:47;95496.34;;;0.20;100.00
65800;BME280;52544;48.116;11.660;2024-03-08T00:38:13;95497.13;;;0.22;100.00
65800;BME280;52544;48.116;11.660;2024-03-08T00:40:38;95482.41;;;0.21;100.00
65800;BME280;52544;48.116;11.660;2024-03-08T00:43:05;95492.81;;;0.21;100.00
65800;BME280;52544;48.116;11.660;2024-03-08T00:45:31;95482.41;;;0.21;100.00
65800;BME280;52544;48.116;11.660;2024-03-08T00:47:56;95478.91;;;0.22;100.00
65800;BME280;52544;48.116;11.660;2024-03-08T00:50:22;95470.31;;;0.20;100.00
65800;BME280;52544;48.116;11.660;2024-03-08T00:52:47;95469.41;;;0.21;100.00
65800;BME280;52544;48.116;11.660;2024-03-08T00:55:13;95467.81;;;0.18;100.00
65800;BME280;52544;48.116;11.660;2024-03-08T00:57:38;95466.03;;;0.19;100.00
65800;BME280;52544;48.116;11.660;2024-03-08T01:00:05;95457.09;;;0.24;100.00
65800;BME280;52544;48.116;11.660;2024-03-08T01:02:35;95461.88;;;0.15;100.00
65800;BME280;52544;48.116;11.660;2024-03-08T01:05:01;95455.75;;;0.16;100.00
65800;BME280;52544;48.116;11.660;2024-03-08T01:07:26;95446.19;;;0.16;100.00
65800;BME280;52544;48.116;11.660;2024-03-08T01:09:52;95447.25;;;0.12;100.00
65800;BME280;52544;48.116;11.660;2024-03-08T01:12:17;95445.56;;;0.11;100.00
65800;BME280;52544;48.116;11.660;2024-03-08T01:14:43;95440.22;;;0.14;100.00
65800;BME280;52544;48.116;11.660;2024-03-08T01:17:08;95444.59;;;0.14;100.00
65800;BME280;52544;48.116;11.660;2024-03-08T01:19:35;95442.03;;;0.12;100.00
65800;BME280;52544;48.116;11.660;2024-03-08T01:22:00;95445.69;;;0.08;100.00
65800;BME280;52544;48.116;11.660;2024-03-08T01:24:25;95440.81;;;0.02;100.00
65800;BME280;52544;48.116;11.660;2024-03-08T01:26:51;95443.06;;;0.10;100.00
65800;BME280;52544;48.116;11.660;2024-03-08T01:29:16;95436.31;;;0.06;100.00
65800;BME280;52544;48.116;11.660;2024-03-08T01:31:42;95437.28;;;0.03;100.00
65800;BME280;52544;48.116;11.660;2024-03-08T01:34:07;95421.53;;;0.06;100.00
65800;BME280;52544;48.116;11.660;2024-03-08T01:36:33;95427.03;;;0.00;100.00
65800;BME280;52544;48.116;11.660;2024-03-08T01:38:58;95413.16;;;-0.01;100.00
65800;BME280;52544;48.116;11.660;2024-03-08T01:41:24;95412.41;;;-0.03;100.00
65800;BME280;52544;48.116;11.660;2024-03-08T01:43:49;95416.63;;;0.00;100.00
65800;BME280;52544;48.116;11.660;2024-03-08T01:46:19;95418.44;;;-0.02;100.00
65800;BME280;52544;48.116;11.660;2024-03-08T01:48:47;95423.00;;;-0.07;100.00
65800;BME280;52544;48.116;11.660;2024-03-08T01:51:12;95409.16;;;-0.08;100.00
65800;BME280;52544;48.116;11.660;2024-03-08T01:53:40;95411.78;;;-0.08;100.00
65800;BME280;52544;48.116;11.660;2024-03-08T01:56:07;95403.13;;;-0.08;100.00
65800;BME280;52544;48.116;11.660;2024-03-08T01:58:34;95397.84;;;-0.07;100.00
65800;BME280;52544;48.116;11.660;2024-03-08T02:01:01;95388.19;;;-0.05;100.00
65800;BME280;52544;48.116;11.660;2024-03-08T02:03:29;95380.59;;;-0.09;100.00
65800;BME280;52544;48.116;11.660;2024-03-08T02:05:57;95366.53;;;-0.05;100.00
65800;BME280;52544;48.116;11.660;2024-03-08T02:08:24;95363.31;;;-0.10;100.00
65800;BME280;52544;48.116;11.660;2024-03-08T02:10:49;95368.53;;;-0.10;100.00
65800;BME280;52544;48.116;11.660;2024-03-08T02:13:16;95371.00;;;-0.07;100.00
65800;BME280;52544;48.116;11.660;2024-03-08T02:15:58;95370.38;;;-0.12;100.00
65800;BME280;52544;48.116;11.660;2024-03-08T02:18:28;95370.41;;;-0.14;100.00
65800;BME280;52544;48.116;11.660;2024-03-08T02:20:59;95369.88;;;-0.20;100.00
65800;BME280;52544;48.116;11.660;2024-03-08T02:23:25;95372.41;;;-0.19;100.00
65800;BME280;52544;48.116;11.660;2024-03-08T02:25:51;95373.75;;;-0.29;100.00
65800;BME280;52544;48.116;11.660;2024-03-08T02:28:18;95371.78;;;-0.24;100.00
65800;BME280;52544;48.116;11.660;2024-03-08T02:30:45;95375.22;;;-0.23;100.00
65800;BME280;52544;48.116;11.660;2024-03-08T02:33:13;95359.63;;;-0.23;100.00
65800;BME280;52544;48.116;11.660;2024-03-08T02:35:42;95369.38;;;-0.29;100.00
65800;BME280;52544;48.116;11.660;2024-03-08T02:38:17;95362.56;;;-0.31;100.00
65800;BME280;52544;48.116;11.660;2024-03-08T02:40:48;95371.19;;;-0.31;100.00
65800;BME280;52544;48.116;11.660;2024-03-08T02:43:14;95367.00;;;-0.33;100.00
65800;BME280;52544;48.116;11.660;2024-03-08T02:45:40;95360.97;;;-0.34;100.00
65800;BME280;52544;48.116;11.660;2024-03-08T02:48:07;95364.31;;;-0.32;100.00
65800;BME280;52544;48.116;11.660;2024-03-08T02:50:33;95361.81;;;-0.33;100.00
65800;BME280;52544;48.116;11.660;2024-03-08T02:53:00;95355.75;;;-0.34;100.00
65800;BME280;52544;48.116;11.660;2024-03-08T02:55:26;95364.44;;;-0.35;100.00
65800;BME280;52544;48.116;11.660;2024-03-08T02:57:52;95356.38;;;-0.29;100.00
65800;BME280;52544;48.116;11.660;2024-03-08T03:00:20;95357.56;;;-0.36;100.00
65800;BME280;52544;48.116;11.660;2024-03-08T03:02:46;95356.75;;;-0.36;100.00
65800;BME280;52544;48.116;11.660;2024-03-08T03:05:12;95363.06;;;-0.42;100.00
65800;BME280;52544;48.116;11.660;2024-03-08T03:07:38;95345.75;;;-0.43;100.00
65800;BME280;52544;48.116;11.660;2024-03-08T03:10:04;95361.44;;;-0.44;100.00
65800;BME280;52544;48.116;11.660;2024-03-08T03:12:30;95356.66;;;-0.54;100.00
65800;BME280;52544;48.116;11.660;2024-03-08T03:14:56;95357.59;;;-0.55;100.00
65800;BME280;52544;48.116;11.660;2024-03-08T03:17:25;95354.91;;;-0.53;100.00
65800;BME280;52544;48.116;11.660;2024-03-08T03:19:51;95354.06;;;-0.54;100.00
65800;BME280;52544;48.116;11.660;2024-03-08T03:22:19;95356.75;;;-0.55;100.00
65800;BME280;52544;48.116;11.660;2024-03-08T03:24:45;95345.19;;;-0.68;100.00
65800;BME280;52544;48.116;11.660;2024-03-08T03:27:16;95339.22;;;-0.70;100.00
65800;BME280;52544;48.116;11.660;2024-03-08T03:29:43;95344.56;;;-0.73;100.00
65800;BME280;52544;48.116;11.660;2024-03-08T03:32:11;95338.44;;;-0.72;100.00
65800;BME280;52544;48.116;11.660;2024-03-08T03:34:37;95342.25;;;-0.80;100.00
65800;BME280;52544;48.116;11.660;2024-03-08T03:37:03;95342.88;;;-0.74;100.00
65800;BME280;52544;48.116;11.660;2024-03-08T03:39:30;95348.22;;;-0.78;100.00
65800;BME280;52544;48.116;11.660;2024-03-08T03:42:02;95348.09;;;-0.74;100.00
65800;BME280;52544;48.116;11.660;2024-03-08T03:44:28;95347.13;;;-0.72;100.00
65800;BME280;52544;48.116;11.660;2024-03-08T03:46:54;95342.09;;;-0.77;100.00
65800;BME280;52544;48.116;11.660;2024-03-08T03:49:19;95338.81;;;-0.80;100.00
65800;BME280;52544;48.116;11.660;2024-03-08T03:51:45;95338.88;;;-0.82;100.00
65800;BME280;52544;48.116;11.660;2024-03-08T03:54:11;95333.81;;;-0.85;100.00
65800;BME280;52544;48.116;11.660;2024-03-08T03:56:37;95336.56;;;-0.88;100.00
65800;BME280;52544;48.116;11.660;2024-03-08T03:59:03;95327.00;;;-0.87;100.00
65800;BME280;52544;48.116;11.660;2024-03-08T04:01:28;95331.41;;;-0.89;100.00
65800;BME280;52544;48.116;11.660;2024-03-08T04:03:54;95330.13;;;-0.99;100.00
65800;BME280;52544;48.116;11.660;2024-03-08T04:06:20;95328.47;;;-1.01;100.00
65800;BME280;52544;48.116;11.660;2024-03-08T04:08:45;95326.84;;;-1.03;100.00
65800;BME280;52544;48.116;11.660;2024-03-08T04:11:11;95329.72;;;-1.09;100.00
65800;BME280;52544;48.116;11.660;2024-03-08T04:13:36;95332.09;;;-1.05;100.00
65800;BME280;52544;48.116;11.660;2024-03-08T04:16:02;95322.56;;;-1.04;100.00
65800;BME280;52544;48.116;11.660;2024-03-08T04:18:27;95330.97;;;-0.99;100.00
65800;BME280;52544;48.116;11.660;2024-03-08T04:20:53;95325.66;;;-0.96;100.00
65800;BME280;52544;48.116;11.660;2024-03-08T04:23:19;95319.81;;;-1.01;100.00
65800;BME280;52544;48.116;11.660;2024-03-08T04:25:44;95326.69;;;-1.00;100.00
65800;BME280;52544;48.116;11.660;2024-03-08T04:28:10;95326.69;;;-1.00;100.00
65800;BME280;52544;48.116;11.660;2024-03-08T04:30:38;95321.50;;;-1.00;100.00
65800;BME280;52544;48.116;11.660;2024-03-08T04:33:05;95322.13;;;-0.95;100.00
65800;BME280;52544;48.116;11.660;2024-03-08T04:35:32;95316.41;;;-1.02;100.00
65800;BME280;52544;48.116;11.660;2024-03-08T04:37:57;95310.06;;;-0.96;100.00
65800;BME280;52544;48.116;11.660;2024-03-08T04:40:23;95316.94;;;-0.95;100.00
65800;BME280;52544;48.116;11.660;2024-03-08T04:42:49;95311.50;;;-0.89;100.00
65800;BME280;52544;48.116;11.660;2024-03-08T04:45:16;95312.66;;;-0.96;100.00
65800;BME280;52544;48.116;11.660;2024-03-08T04:47:42;95316.09;;;-0.95;100.00
65800;BME280;52544;48.116;11.660;2024-03-08T04:50:08;95315.41;;;-0.99;100.00
65800;BME280;52544;48.116;11.660;2024-03-08T04:52:34;95315.47;;;-1.01;100.00
65800;BME280;52544;48.116;11.660;2024-03-08T04:55:01;95320.47;;;-0.96;100.00
65800;BME280;52544;48.116;11.660;2024-03-08T04:57:29;95312.91;;;-1.02;100.00
65800;BME280;52544;48.116;11.660;2024-03-08T04:59:55;95316.31;;;-1.00;100.00
65800;BME280;52544;48.116;11.660;2024-03-08T05:02:20;95313.63;;;-0.98;100.00
65800;BME280;52544;48.116;11.660;2024-03-08T05:04:48;95312.53;;;-0.93;100.00
65800;BME280;52544;48.116;11.660;2024-03-08T05:07:13;95318.63;;;-0.94;100.00
65800;BME280;52544;48.116;11.660;2024-03-08T05:09:39;95309.88;;;-0.91;100.00
65800;BME280;52544;48.116;11.660;2024-03-08T05:12:06;95314.63;;;-1.01;100.00
65800;BME280;52544;48.116;11.660;2024-03-08T05:14:31;95311.19;;;-1.02;100.00
65800;BME280;52544;48.116;11.660;2024-03-08T05:16:57;95313.78;;;-1.02;100.00
65800;BME280;52544;48.116;11.660;2024-03-08T05:19:23;95314.56;;;-0.99;100.00
65800;BME280;52544;48.116;11.660;2024-03-08T05:21:51;95313.44;;;-0.94;100.00
65800;BME280;52544;48.116;11.660;2024-03-08T05:24:18;95313.44;;;-0.94;100.00
65800;BME280;52544;48.116;11.660;2024-03-08T05:26:43;95306.50;;;-0.93;100.00
65800;BME280;52544;48.116;11.660;2024-03-08T05:29:09;95307.25;;;-0.91;100.00
65800;BME280;52544;48.116;11.660;2024-03-08T05:31:53;95299.38;;;-0.90;100.00
65800;BME280;52544;48.116;11.660;2024-03-08T05:34:19;95301.94;;;-0.88;100.00
65800;BME280;52544;48.116;11.660;2024-03-08T05:36:46;95292.38;;;-0.88;100.00
65800;BME280;52544;48.116;11.660;2024-03-08T05:39:13;95297.59;;;-0.88;100.00
65800;BME280;52544;48.116;11.660;2024-03-08T05:41:39;95296.66;;;-0.87;100.00
65800;BME280;52544;48.116;11.660;2024-03-08T05:44:04;95298.28;;;-0.84;100.00
65800;BME280;52544;48.116;11.660;2024-03-08T05:46:30;95297.28;;;-0.82;100.00
65800;BME280;52544;48.116;11.660;2024-03-08T05:48:55;95299.00;;;-0.81;100.00
65800;BME280;52544;48.116;11.660;2024-03-08T05:51:23;95293.81;;;-0.81;100.00
65800;BME280;52544;48.116;11.660;2024-03-08T05:53:49;95294.34;;;-0.74;100.00
65800;BME280;52544;48.116;11.660;2024-03-08T05:56:15;95295.91;;;-0.70;100.00
65800;BME280;52544;48.116;11.660;2024-03-08T05:58:40;95285.41;;;-0.68;100.00
65800;BME280;52544;48.116;11.660;2024-03-08T06:01:05;95291.41;;;-0.66;100.00
65800;BME280;52544;48.116;11.660;2024-03-08T06:03:34;95284.38;;;-0.64;100.00
65800;BME280;52544;48.116;11.660;2024-03-08T06:05:59;95288.47;;;-0.59;100.00
65800;BME280;52544;48.116;11.660;2024-03-08T06:08:25;95283.25;;;-0.59;100.00
65800;BME280;52544;48.116;11.660;2024-03-08T06:10:55;95279.03;;;-0.61;100.00
65800;BME280;52544;48.116;11.660;2024-03-08T06:13:21;95283.25;;;-0.59;100.00
65800;BME280;52544;48.116;11.660;2024-03-08T06:15:46;95274.66;;;-0.61;100.00
65800;BME280;52544;48.116;11.660;2024-03-08T06:18:12;95273.56;;;-0.55;100.00
65800;BME280;52544;48.116;11.660;2024-03-08T06:20:37;95277.75;;;-0.53;100.00
65800;BME280;52544;48.116;11.660;2024-03-08T06:23:03;95280.94;;;-0.46;100.00
65800;BME280;52544;48.116;11.660;2024-03-08T06:25:29;95282.69;;;-0.46;100.00
65800;BME280;52544;48.116;11.660;2024-03-08T06:27:55;95285.97;;;-0.43;100.00
65800;BME280;52544;48.116;11.660;2024-03-08T06:30:20;95287.91;;;-0.46;100.00
65800;BME280;52544;48.116;11.660;2024-03-08T06:32:46;95279.31;;;-0.48;100.00
65800;BME280;52544;48.116;11.660;2024-03-08T06:35:12;95287.03;;;-0.47;100.00
65800;BME280;52544;48.116;11.660;2024-03-08T06:37:37;95285.22;;;-0.45;100.00
65800;BME280;52544;48.116;11.660;2024-03-08T06:40:03;95285.13;;;-0.43;100.00
65800;BME280;52544;48.116;11.660;2024-03-08T06:42:29;95287.59;;;-0.40;100.00
65800;BME280;52544;48.116;11.660;2024-03-08T06:44:59;95285.75;;;-0.38;100.00
65800;BME280;52544;48.116;11.660;2024-03-08T06:47:29;95287.09;;;-0.30;100.00
65800;BME280;52544;48.116;11.660;2024-03-08T06:49:55;95282.66;;;-0.28;100.00
65800;BME280;52544;48.116;11.660;2024-03-08T06:52:20;95289.69;;;-0.30;100.00
65800;BME280;52544;48.116;11.660;2024-03-08T06:54:47;95287.00;;;-0.28;100.00
65800;BME280;52544;48.116;11.660;2024-03-08T06:57:13;95281.81;;;-0.28;100.00
65800;BME280;52544;48.116;11.660;2024-03-08T06:59:39;95285.88;;;-0.22;100.00
65800;BME280;52544;48.116;11.660;2024-03-08T07:02:05;95282.91;;;-0.15;100.00
65800;BME280;52544;48.116;11.660;2024-03-08T07:04:34;95286.34;;;-0.14;100.00
65800;BME280;52544;48.116;11.660;2024-03-08T07:07:06;95279.59;;;-0.18;100.00
65800;BME280;52544;48.116;11.660;2024-03-08T07:09:38;95276.72;;;-0.12;100.00
65800;BME280;52544;48.116;11.660;2024-03-08T07:12:03;95275.78;;;-0.11;100.00
65800;BME280;52544;48.116;11.660;2024-03-08T07:14:29;95276.19;;;-0.02;100.00
65800;BME280;52544;48.116;11.660;2024-03-08T07:16:56;95276.03;;;0.02;100.00
65800;BME280;52544;48.116;11.660;2024-03-08T07:19:21;95274.59;;;0.13;100.00
65800;BME280;52544;48.116;11.660;2024-03-08T07:21:47;95281.94;;;0.22;100.00
65800;BME280;52544;48.116;11.660;2024-03-08T07:24:13;95278.28;;;0.27;100.00
65800;BME280;52544;48.116;11.660;2024-03-08T07:26:53;95279.13;;;0.27;100.00
65800;BME280;52544;48.116;11.660;2024-03-08T07:29:21;95269.31;;;0.32;100.00
65800;BME280;52544;48.116;11.660;2024-03-08T07:31:47;95271.38;;;0.43;100.00
65800;BME280;52544;48.116;11.660;2024-03-08T07:34:36;95266.00;;;0.46;100.00
65800;BME280;52544;48.116;11.660;2024-03-08T07:37:02;95260.88;;;0.44;100.00
65800;BME280;52544;48.116;11.660;2024-03-08T07:39:29;95263.38;;;0.63;100.00
65800;BME280;52544;48.116;11.660;2024-03-08T07:41:55;95266.03;;;0.79;100.00
65800;BME280;52544;48.116;11.660;2024-03-08T07:44:20;95262.88;;;0.90;100.00
65800;BME280;52544;48.116;11.660;2024-03-08T07:46:45;95260.78;;;0.96;100.00
65800;BME280;52544;48.116;11.660;2024-03-08T07:49:11;95259.03;;;0.97;100.00
65800;BME280;52544;48.116;11.660;2024-03-08T07:51:37;95252.59;;;1.20;100.00
65800;BME280;52544;48.116;11.660;2024-03-08T07:54:04;95251.84;;;1.34;100.00
65800;BME280;52544;48.116;11.660;2024-03-08T07:56:30;95236.53;;;1.59;100.00
65800;BME280;52544;48.116;11.660;2024-03-08T07:58:56;95244.56;;;1.86;100.00
65800;BME280;52544;48.116;11.660;2024-03-08T08:01:21;95243.03;;;1.98;100.00
65800;BME280;52544;48.116;11.660;2024-03-08T08:03:47;95232.63;;;2.12;100.00
65800;BME280;52544;48.116;11.660;2024-03-08T08:06:15;95237.78;;;2.14;100.00
65800;BME280;52544;48.116;11.660;2024-03-08T08:08:42;95237.50;;;1.88;100.00
65800;BME280;52544;48.116;11.660;2024-03-08T08:11:08;95237.66;;;2.01;100.00
65800;BME280;52544;48.116;11.660;2024-03-08T08:13:34;95232.41;;;2.17;100.00
65800;BME280;52544;48.116;11.660;2024-03-08T08:16:02;95234.97;;;2.47;100.00
65800;BME280;52544;48.116;11.660;2024-03-08T08:18:28;95233.22;;;2.62;100.00
65800;BME280;52544;48.116;11.660;2024-03-08T08:20:55;95233.78;;;2.67;100.00
65800;BME280;52544;48.116;11.660;2024-03-08T08:23:20;95231.66;;;2.73;100.00
65800;BME280;52544;48.116;11.660;2024-03-08T08:25:46;95232.31;;;2.77;100.00
65800;BME280;52544;48.116;11.660;2024-03-08T08:28:16;95229.41;;;2.82;100.00
65800;BME280;52544;48.116;11.660;2024-03-08T08:30:43;95232.31;;;2.77;100.00
65800;BME280;52544;48.116;11.660;2024-03-08T08:33:09;95225.22;;;2.93;100.00
65800;BME280;52544;48.116;11.660;2024-03-08T08:35:36;95214.28;;;3.15;100.00
65800;BME280;52544;48.116;11.660;2024-03-08T08:38:04;95207.16;;;3.17;100.00
65800;BME280;52544;48.116;11.660;2024-03-08T08:40:29;95209.28;;;3.39;100.00
65800;BME280;52544;48.116;11.660;2024-03-08T08:42:58;95202.13;;;3.70;100.00
65800;BME280;52544;48.116;11.660;2024-03-08T08:45:23;95202.53;;;3.76;100.00
65800;BME280;52544;48.116;11.660;2024-03-08T08:47:48;95201.97;;;3.98;100.00
65800;BME280;52544;48.116;11.660;2024-03-08T08:50:20;95195.53;;;4.04;100.00
65800;BME280;52544;48.116;11.660;2024-03-08T08:52:50;95186.09;;;4.14;100.00
65800;BME280;52544;48.116;11.660;2024-03-08T08:55:15;95193.66;;;4.19;100.00
65800;BME280;52544;48.116;11.660;2024-03-08T08:57:49;95193.00;;;4.15;100.00
65800;BME280;52544;48.116;11.660;2024-03-08T09:00:16;95191.16;;;4.17;100.00
65800;BME280;52544;48.116;11.660;2024-03-08T09:02:42;95179.28;;;4.24;100.00
65800;BME280;52544;48.116;11.660;2024-03-08T09:05:07;95179.22;;;4.39;100.00
65800;BME280;52544;48.116;11.660;2024-03-08T09:07:33;95183.84;;;4.48;100.00
65800;BME280;52544;48.116;11.660;2024-03-08T09:10:00;95176.81;;;4.74;100.00
65800;BME280;52544;48.116;11.660;2024-03-08T09:12:25;95178.69;;;5.10;100.00
65800;BME280;52544;48.116;11.660;2024-03-08T09:14:51;95168.84;;;5.38;100.00
65800;BME280;52544;48.116;11.660;2024-03-08T09:17:16;95173.47;;;5.34;100.00
65800;BME280;52544;48.116;11.660;2024-03-08T09:19:46;95170.09;;;5.45;100.00
65800;BME280;52544;48.116;11.660;2024-03-08T09:22:13;95171.59;;;5.60;100.00
65800;BME280;52544;48.116;11.660;2024-03-08T09:24:38;95160.88;;;5.87;100.00
65800;BME280;52544;48.116;11.660;2024-03-08T09:27:04;95163.09;;;5.93;100.00
65800;BME280;52544;48.116;11.660;2024-03-08T09:29:29;95156.66;;;5.97;100.00
65800;BME280;52544;48.116;11.660;2024-03-08T09:31:55;95159.25;;;6.21;100.00
65800;BME280;52544;48.116;11.660;2024-03-08T09:34:21;95154.66;;;6.47;100.00
65800;BME280;52544;48.116;11.660;2024-03-08T09:36:46;95139.75;;;6.70;98.88
65800;BME280;52544;48.116;11.660;2024-03-08T09:39:12;95145.25;;;6.90;94.73
65800;BME280;52544;48.116;11.660;2024-03-08T09:41:45;95142.03;;;6.86;90.94
65800;BME280;52544;48.116;11.660;2024-03-08T09:44:13;95137.59;;;7.09;95.35
65800;BME280;52544;48.116;11.660;2024-03-08T09:46:40;95139.84;;;7.36;92.38
65800;BME280;52544;48.116;11.660;2024-03-08T09:49:09;95136.84;;;7.52;89.33
65800;BME280;52544;48.116;11.660;2024-03-08T09:51:38;95138.22;;;7.67;87.57
65800;BME280;52544;48.116;11.660;2024-03-08T09:54:06;95125.69;;;7.92;88.14
65800;BME280;52544;48.116;11.660;2024-03-08T09:56:35;95134.00;;;8.08;86.40
65800;BME280;52544;48.116;11.660;2024-03-08T09:59:02;95133.41;;;8.37;84.95
65800;BME280;52544;48.116;11.660;2024-03-08T10:01:30;95123.25;;;8.53;82.70
65800;BME280;52544;48.116;11.660;2024-03-08T10:03:57;95137.50;;;8.30;82.46
65800;BME280;52544;48.116;11.660;2024-03-08T10:06:23;95134.31;;;8.47;81.67
65800;BME280;52544;48.116;11.660;2024-03-08T10:08:50;95126.59;;;8.55;77.83
65800;BME280;52544;48.116;11.660;2024-03-08T10:11:19;95129.41;;;8.63;76.98
65800;BME280;52544;48.116;11.660;2024-03-08T10:13:45;95120.75;;;8.51;75.73
65800;BME280;52544;48.116;11.660;2024-03-08T10:16:12;95117.84;;;8.75;75.85
65800;BME280;52544;48.116;11.660;2024-03-08T10:18:38;95119.41;;;8.88;73.54
65800;BME280;52544;48.116;11.660;2024-03-08T10:21:08;95112.22;;;8.99;71.60
65800;BME280;52544;48.116;11.660;2024-03-08T10:23:35;95111.63;;;8.86;71.00
65800;BME280;52544;48.116;11.660;2024-03-08T10:26:15;95104.97;;;8.92;71.66
65800;BME280;52544;48.116;11.660;2024-03-08T10:28:45;95100.16;;;8.97;71.66
65800;BME280;52544;48.116;11.660;2024-03-08T10:31:11;95099.84;;;9.31;68.49
65800;BME280;52544;48.116;11.660;2024-03-08T10:33:36;95098.38;;;9.07;67.48
65800;BME280;52544;48.116;11.660;2024-03-08T10:36:07;95098.59;;;9.35;69.25
65800;BME280;52544;48.116;11.660;2024-03-08T10:38:35;95102.41;;;9.61;68.52
65800;BME280;52544;48.116;11.660;2024-03-08T10:41:01;95100.34;;;9.74;66.14
65800;BME280;52544;48.116;11.660;2024-03-08T10:43:31;95091.44;;;10.14;66.56
65800;BME280;52544;48.116;11.660;2024-03-08T10:48:55;95084.50;;;10.33;63.32
65800;BME280;52544;48.116;11.660;2024-03-08T10:51:24;95080.59;;;10.37;63.54
65800;BME280;52544;48.116;11.660;2024-03-08T10:53:51;95069.38;;;10.72;63.59
65800;BME280;52544;48.116;11.660;2024-03-08T10:56:17;95073.06;;;10.89;62.33
65800;BME280;52544;48.116;11.660;2024-03-08T10:58:43;95073.84;;;10.99;62.22
65800;BME280;52544;48.116;11.660;2024-03-08T11:01:09;95069.78;;;11.32;59.77
65800;BME280;52544;48.116;11.660;2024-03-08T11:06:08;95068.06;;;11.41;60.42
65800;BME280;52544;48.116;11.660;2024-03-08T11:08:37;95064.06;;;11.37;57.88
65800;BME280;52544;48.116;11.660;2024-03-08T11:11:04;95067.59;;;11.27;57.05
65800;BME280;52544;48.116;11.660;2024-03-08T11:19:01;95047.88;;;11.85;56.61
65800;BME280;52544;48.116;11.660;2024-03-08T11:21:30;95046.22;;;12.10;57.04
65800;BME280;52544;48.116;11.660;2024-03-08T11:24:00;95035.56;;;12.02;54.92
65800;BME280;52544;48.116;11.660;2024-03-08T11:26:25;95028.75;;;11.82;55.48
65800;BME280;52544;48.116;11.660;2024-03-08T11:28:51;95030.69;;;11.62;55.72
65800;BME280;52544;48.116;11.660;2024-03-08T11:33:46;95031.97;;;11.40;56.65
65800;BME280;52544;48.116;11.660;2024-03-08T11:36:15;95023.66;;;11.52;56.77
65800;BME280;52544;48.116;11.660;2024-03-08T11:38:53;95017.75;;;11.76;57.35
65800;BME280;52544;48.116;11.660;2024-03-08T11:41:20;95012.56;;;12.03;56.45
65800;BME280;52544;48.116;11.660;2024-03-08T11:43:47;95011.75;;;12.10;55.08
65800;BME280;52544;48.116;11.660;2024-03-08T11:46:14;95015.16;;;12.20;55.23
65800;BME280;52544;48.116;11.660;2024-03-08T11:48:41;95007.75;;;11.70;55.49
65800;BME280;52544;48.116;11.660;2024-03-08T11:51:13;95005.41;;;12.03;55.47
65800;BME280;52544;48.116;11.660;2024-03-08T11:53:40;94999.94;;;12.05;55.35
65800;BME280;52544;48.116;11.660;2024-03-08T11:56:13;95002.06;;;12.01;57.37
65800;BME280;52544;48.116;11.660;2024-03-08T11:58:40;95002.69;;;11.95;55.97
65800;BME280;52544;48.116;11.660;2024-03-08T12:01:07;95008.38;;;11.82;55.85
65800;BME280;52544;48.116;11.660;2024-03-08T12:03:40;94995.66;;;11.86;53.97
65800;BME280;52544;48.116;11.660;2024-03-08T12:06:08;94987.03;;;11.84;55.15
65800;BME280;52544;48.116;11.660;2024-03-08T12:08:37;94985.50;;;11.81;57.28
65800;BME280;52544;48.116;11.660;2024-03-08T12:11:07;94989.75;;;11.92;56.78
65800;BME280;52544;48.116;11.660;2024-03-08T12:13:35;94979.06;;;11.48;55.69
65800;BME280;52544;48.116;11.660;2024-03-08T12:16:04;94987.47;;;11.61;57.09
65800;BME280;52544;48.116;11.660;2024-03-08T12:18:37;94975.50;;;11.57;56.32
65800;BME280;52544;48.116;11.660;2024-03-08T12:21:07;94978.00;;;11.59;57.12
65800;BME280;52544;48.116;11.660;2024-03-08T12:23:36;94965.50;;;11.51;56.04
65800;BME280;52544;48.116;11.660;2024-03-08T12:26:15;94965.66;;;11.32;57.03
65800;BME280;52544;48.116;11.660;2024-03-08T12:28:45;94970.66;;;11.35;57.93
65800;BME280;52544;48.116;11.660;2024-03-08T12:31:14;94964.28;;;11.45;56.29
65800;BME280;52544;48.116;11.660;2024-03-08T12:33:53;94958.41;;;11.51;56.31
65800;BME280;52544;48.116;11.660;2024-03-08T12:36:20;94952.25;;;11.51;54.20
65800;BME280;52544;48.116;11.660;2024-03-08T12:38:47;94959.44;;;11.23;54.47
65800;BME280;52544;48.116;11.660;2024-03-08T12:41:19;94949.84;;;11.22;55.60
65800;BME280;52544;48.116;11.660;2024-03-08T12:43:45;94948.56;;;11.26;53.55
65800;BME280;52544;48.116;11.660;2024-03-08T12:46:18;94946.50;;;11.20;54.57
65800;BME280;52544;48.116;11.660;2024-03-08T12:48:47;94942.38;;;10.90;55.63
65800;BME280;52544;48.116;11.660;2024-03-08T12:51:14;94929.69;;;11.11;56.62
65800;BME280;52544;48.116;11.660;2024-03-08T12:53:42;94932.25;;;11.03;55.36
65800;BME280;52544;48.116;11.660;2024-03-08T12:56:10;94927.66;;;11.23;55.48
65800;BME280;52544;48.116;11.660;2024-03-08T12:58:36;94922.53;;;11.21;54.97